createdAt,value
2023-01-07T18:18:24.859Z,18.82
2023-01-07T18:35:15.002Z,19.78
2023-01-07T18:41:58.547Z,20.31
2023-01-07T18:48:42.097Z,20.69
2023-01-07T18:55:27.845Z,20.96
2023-01-07T19:02:16.415Z,21.06
2023-01-07T19:08:59.925Z,21.28
2023-01-07T19:15:44.691Z,21.42
2023-01-07T19:22:28.057Z,21.50
2023-01-07T19:29:13.907Z,21.13
2023-01-07T19:36:05.408Z,21.61
2023-01-07T19:42:48.847Z,21.63
2023-01-07T19:49:32.283Z,21.66
2023-01-07T19:56:16.969Z,21.71
2023-01-07T20:03:00.388Z,21.73
2023-01-07T20:09:44.121Z,19.52
2023-01-07T20:16:28.865Z,21.78
2023-01-07T20:23:12.211Z,21.80
2023-01-07T20:29:55.563Z,21.81
2023-01-07T20:36:40.297Z,21.83
2023-01-07T20:43:24.199Z,21.82
2023-01-07T20:50:09.935Z,21.86
2023-01-07T20:56:54.637Z,21.86
2023-01-07T21:03:40.317Z,21.86
2023-01-07T21:10:23.788Z,21.88
2023-01-07T21:17:08.523Z,21.89
2023-01-07T21:23:52.173Z,21.87
2023-01-07T21:30:35.640Z,21.84
2023-01-07T21:37:20.559Z,21.70
2023-01-07T21:44:04.111Z,21.57
2023-01-07T21:50:47.515Z,21.37
2023-01-07T21:57:33.746Z,21.36
2023-01-07T22:04:17.140Z,21.28
2023-01-07T22:11:00.546Z,21.23
2023-01-07T22:17:45.636Z,21.20
2023-01-07T22:24:29.405Z,21.15
2023-01-07T22:31:18.119Z,21.12
2023-01-07T22:38:04.079Z,21.09
2023-01-07T22:44:51.620Z,21.08
2023-01-07T22:51:41.480Z,21.06
2023-01-07T22:58:26.225Z,21.13
2023-01-07T23:05:09.953Z,21.19
2023-01-07T23:11:59.101Z,21.23
2023-01-07T23:18:43.836Z,21.27
2023-01-07T23:25:27.217Z,21.27
2023-01-07T23:32:12.422Z,20.93
2023-01-07T23:38:57.183Z,21.02
2023-01-07T23:45:40.628Z,21.30
2023-01-07T23:52:24.097Z,21.31
2023-01-07T23:59:09.405Z,21.30
